Time;durP1;ratioP1;P1;durP2;ratioP2;P2;SDS_P1;SDS_P2;PMS_P1;PMS_P2;Temp;Humidity;BMP_temperature;BMP_pressure;BME280_temperature;BME280_humidity;BME280_pressure;Samples;Min_cycle;Max_cycle;Signal;HPM_P1;HPM_P2
2021/09/22 00:01:00;;;;;;;28.67;5.70;;;12.00;91.40;;;;;;5074577;28;20234;-87
2021/09/22 00:03:26;;;;;;;36.30;6.30;;;12.00;91.30;;;;;;5074586;28;20714;-87
2021/09/22 00:05:52;;;;;;;28.33;6.07;;;12.00;91.30;;;;;;5074492;28;20179;-87
2021/09/22 00:08:18;;;;;;;34.07;4.67;;;11.90;91.20;;;;;;5075803;28;20651;-87
2021/09/22 00:10:43;;;;;;;29.17;5.50;;;12.00;91.20;;;;;;5075695;28;20562;-87
2021/09/22 00:13:09;;;;;;;25.20;5.30;;;11.90;91.20;;;;;;5075651;28;20182;-87
2021/09/22 00:15:36;;;;;;;32.00;5.30;;;12.00;91.30;;;;;;5075556;28;20183;-87
2021/09/22 00:18:01;;;;;;;28.23;5.73;;;12.00;91.40;;;;;;5074253;28;20199;-87
2021/09/22 00:20:27;;;;;;;25.10;5.90;;;11.90;91.30;;;;;;5075429;28;20279;-87
2021/09/22 00:22:58;;;;;;;32.20;5.60;;;11.90;91.20;;;;;;5074270;28;20617;-86
2021/09/22 00:25:25;;;;;;;26.43;5.57;;;11.90;91.30;;;;;;5074175;28;20654;-87
2021/09/22 00:27:51;;;;;;;40.10;6.03;;;11.80;91.50;;;;;;5074071;28;20278;-87
2021/09/22 00:30:17;;;;;;;22.60;4.53;;;11.80;91.60;;;;;;5075332;28;20309;-87
2021/09/22 00:32:46;;;;;;;25.87;5.80;;;11.80;91.50;;;;;;5074336;28;20276;-87
2021/09/22 00:35:12;;;;;;;29.33;5.70;;;11.80;91.40;;;;;;5073960;28;20186;-86
2021/09/22 00:37:38;;;;;;;22.23;5.03;;;11.70;91.40;;;;;;5075114;28;20209;-87
2021/09/22 00:40:05;;;;;;;25.23;5.50;;;11.80;91.50;;;;;;5075070;28;20566;-87
2021/09/22 00:42:30;;;;;;;27.07;5.13;;;11.80;91.40;;;;;;5073701;28;20203;-87
2021/09/22 00:44:58;;;;;;;29.80;5.23;;;11.70;91.30;;;;;;5073788;28;20210;-87
2021/09/22 00:47:28;;;;;;;26.57;5.60;;;11.70;91.40;;;;;;5073997;28;20648;-87
2021/09/22 00:49:53;;;;;;;30.17;5.17;;;11.60;91.40;;;;;;5074852;28;20175;-87
2021/09/22 00:52:20;;;;;;;16.80;4.17;;;11.60;91.50;;;;;;5075161;28;20254;-87
2021/09/22 00:54:46;;;;;;;10.63;3.97;;;11.60;91.50;;;;;;5074860;28;20250;-87
2021/09/22 00:57:14;;;;;;;20.37;4.23;;;11.60;91.30;;;;;;5074540;28;20607;-87
2021/09/22 00:59:40;;;;;;;18.27;4.70;;;11.60;91.10;;;;;;5073453;28;20175;-87
2021/09/22 01:02:06;;;;;;;22.37;5.10;;;11.50;90.90;;;;;;5073400;28;20203;-87
2021/09/22 01:04:32;;;;;;;23.37;4.83;;;11.50;90.70;;;;;;5072950;28;20233;-87
2021/09/22 01:06:58;;;;;;;24.50;5.00;;;11.50;91.00;;;;;;5073317;28;20184;-87
2021/09/22 01:09:24;;;;;;;25.03;4.43;;;11.40;91.10;;;;;;5073293;28;20199;-87
2021/09/22 01:11:50;;;;;;;30.47;5.77;;;11.40;91.10;;;;;;5074425;28;20176;-87
2021/09/22 01:14:21;;;;;;;28.93;5.53;;;11.40;91.10;;;;;;5073128;28;20268;-87
2021/09/22 01:16:46;;;;;;;21.60;4.73;;;11.40;91.10;;;;;;5073147;28;20636;-87
2021/09/22 01:19:12;;;;;;;24.43;5.13;;;11.30;91.30;;;;;;5073047;28;20210;-87
2021/09/22 01:21:42;;;;;;;25.70;5.67;;;11.30;91.50;;;;;;5073018;28;20203;-87
2021/09/22 01:24:08;;;;;;;18.93;4.87;;;11.40;91.50;;;;;;5074314;28;20148;-87
2021/09/22 01:26:34;;;;;;;27.83;5.13;;;11.30;91.40;;;;;;5072908;28;20670;-87
2021/09/22 01:29:00;;;;;;;19.47;4.60;;;11.30;91.20;;;;;;5072939;28;20286;-87
2021/09/22 01:31:26;;;;;;;27.57;5.07;;;11.30;91.20;;;;;;5074030;28;20229;-87
2021/09/22 01:33:52;;;;;;;30.67;6.27;;;11.30;91.40;;;;;;5072911;28;20183;-87
2021/09/22 01:36:18;;;;;;;18.17;4.37;;;11.20;91.40;;;;;;5073985;28;20255;-87
2021/09/22 01:38:43;;;;;;;26.43;5.40;;;11.30;91.50;;;;;;5072677;28;20646;-87
2021/09/22 01:41:11;;;;;;;29.20;5.73;;;11.20;91.60;;;;;;5072613;28;20230;-87
2021/09/22 01:43:38;;;;;;;32.23;5.57;;;11.20;91.60;;;;;;5073844;28;20171;-86
2021/09/22 01:46:06;;;;;;;23.07;4.37;;;11.20;91.50;;;;;;5072645;28;20179;-87
2021/09/22 01:48:32;;;;;;;24.27;5.37;;;11.20;91.50;;;;;;5073792;28;20211;-87
2021/09/22 01:51:01;;;;;;;28.23;5.10;;;11.20;91.50;;;;;;5072796;28;20659;-87
2021/09/22 01:53:27;;;;;;;19.30;5.50;;;11.20;91.50;;;;;;5072575;28;20325;-87
2021/09/22 01:55:58;;;;;;;24.33;4.97;;;11.20;91.50;;;;;;5072531;28;20666;-87
2021/09/22 01:58:25;;;;;;;16.93;4.60;;;11.20;91.60;;;;;;5072184;28;20761;-87
2021/09/22 02:00:52;;;;;;;16.90;3.90;;;11.20;91.60;;;;;;5072647;28;20203;-86
2021/09/22 02:03:18;;;;;;;22.83;5.80;;;11.10;91.60;;;;;;5072422;28;20766;-87
2021/09/22 02:05:45;;;;;;;29.93;5.33;;;11.20;91.80;;;;;;5072250;28;20207;-87
2021/09/22 02:08:11;;;;;;;25.40;5.30;;;11.20;92.00;;;;;;5072151;28;20249;-87
2021/09/22 02:10:38;;;;;;;30.93;5.33;;;11.10;91.90;;;;;;5072199;28;20182;-87
2021/09/22 02:13:04;;;;;;;19.70;5.07;;;11.10;92.00;;;;;;5073451;28;20171;-87
2021/09/22 02:15:29;;;;;;;17.63;3.83;;;11.10;92.10;;;;;;5073381;28;20670;-87
2021/09/22 02:17:55;;;;;;;23.00;5.87;;;11.20;92.00;;;;;;5072116;28;20195;-87
2021/09/22 02:20:21;;;;;;;32.70;5.40;;;11.10;91.80;;;;;;5072038;28;20237;-87
2021/09/22 02:22:47;;;;;;;23.30;5.30;;;11.00;91.50;;;;;;5072239;28;20705;-87
2021/09/22 02:25:13;;;;;;;27.43;5.80;;;11.10;92.00;;;;;;5073383;28;20180;-87
2021/09/22 02:27:40;;;;;;;20.37;4.93;;;11.10;92.30;;;;;;5072273;28;20219;-87
2021/09/22 02:30:10;;;;;;;21.20;5.20;;;11.10;92.40;;;;;;5071971;28;20186;-87
2021/09/22 02:32:36;;;;;;;31.43;5.70;;;11.00;92.40;;;;;;5073491;28;20171;-87
2021/09/22 02:35:03;;;;;;;33.13;6.07;;;11.00;92.50;;;;;;5072043;28;20559;-87
2021/09/22 02:37:28;;;;;;;23.97;4.23;;;11.00;92.60;;;;;;5072104;28;20202;-87
2021/09/22 02:39:55;;;;;;;19.40;4.30;;;11.00;92.60;;;;;;5071860;28;20183;-87
2021/09/22 02:42:22;;;;;;;18.57;3.83;;;11.00;92.50;;;;;;5071901;28;20179;-87
2021/09/22 02:44:48;;;;;;;14.63;3.60;;;11.00;92.40;;;;;;5073159;28;20171;-87
2021/09/22 02:47:14;;;;;;;20.33;4.33;;;10.90;92.20;;;;;;5073025;28;20653;-87
2021/09/22 02:49:40;;;;;;;15.33;3.53;;;10.80;92.00;;;;;;5071862;28;20182;-87
2021/09/22 02:52:06;;;;;;;23.17;4.13;;;10.90;91.90;;;;;;5073132;28;20179;-87
2021/09/22 02:54:32;;;;;;;24.53;4.00;;;10.80;91.70;;;;;;5071834;28;20187;-87
2021/09/22 02:56:57;;;;;;;15.00;3.93;;;10.80;91.70;;;;;;5071785;28;20647;-87
2021/09/22 02:59:23;;;;;;;15.77;3.97;;;10.80;91.60;;;;;;5071604;28;20671;-87
2021/09/22 03:01:49;;;;;;;14.63;3.63;;;10.80;91.50;;;;;;5072856;28;20195;-87
2021/09/22 03:04:15;;;;;;;18.03;4.60;;;10.80;91.30;;;;;;5072963;28;20175;-87
2021/09/22 03:06:40;;;;;;;16.40;4.40;;;10.80;91.20;;;;;;5071711;28;20187;-87
2021/09/22 03:09:06;;;;;;;17.10;4.17;;;10.80;91.10;;;;;;5071808;28;20535;-87
2021/09/22 03:11:32;;;;;;;24.80;5.13;;;10.90;91.60;;;;;;5071602;28;20183;-87
2021/09/22 03:13:58;;;;;;;17.10;4.47;;;10.90;91.90;;;;;;5071616;28;20187;-87
2021/09/22 03:16:23;;;;;;;17.27;3.83;;;10.90;92.00;;;;;;5071609;28;20183;-87
2021/09/22 03:18:49;;;;;;;20.27;3.87;;;10.90;92.00;;;;;;5071543;28;20203;-87
2021/09/22 03:21:15;;;;;;;22.83;4.60;;;10.90;91.90;;;;;;5071528;28;20205;-87
2021/09/22 03:23:40;;;;;;;24.53;3.90;;;10.90;91.80;;;;;;5071516;28;20221;-87
2021/09/22 03:26:06;;;;;;;17.87;4.40;;;10.90;91.80;;;;;;5071561;28;20622;-87
2021/09/22 03:28:32;;;;;;;16.27;4.37;;;10.80;91.90;;;;;;5073167;28;20264;-87
2021/09/22 03:30:58;;;;;;;22.00;5.40;;;10.80;92.00;;;;;;5075176;28;20253;-87
2021/09/22 03:33:24;;;;;;;24.63;4.20;;;10.80;92.10;;;;;;5076413;28;20179;-87
2021/09/22 03:35:50;;;;;;;25.23;5.93;;;10.80;92.40;;;;;;5075062;28;20183;-87
2021/09/22 03:38:16;;;;;;;27.57;5.30;;;10.80;92.40;;;;;;5075040;28;20670;-87
2021/09/22 03:40:42;;;;;;;28.47;4.73;;;10.80;92.60;;;;;;5074952;28;20285;-87
2021/09/22 03:43:08;;;;;;;32.00;5.23;;;10.90;92.90;;;;;;5075303;28;20268;-87
2021/09/22 03:45:34;;;;;;;30.77;5.03;;;10.90;93.00;;;;;;5075005;28;20179;-87
2021/09/22 03:47:59;;;;;;;24.57;4.97;;;10.90;93.00;;;;;;5074800;28;20222;-87
2021/09/22 03:50:25;;;;;;;28.80;4.37;;;10.90;92.90;;;;;;5076076;28;20662;-87
2021/09/22 03:52:51;;;;;;;21.83;4.33;;;10.90;92.90;;;;;;5074895;28;20190;-87
2021/09/22 03:55:17;;;;;;;24.27;4.40;;;10.90;92.90;;;;;;5075338;28;20180;-87
2021/09/22 03:57:42;;;;;;;18.57;4.00;;;10.90;92.90;;;;;;5074419;28;20217;-87
2021/09/22 04:00:08;;;;;;;18.10;4.13;;;10.90;92.90;;;;;;5074629;28;20203;-87
2021/09/22 04:02:34;;;;;;;22.70;4.97;;;10.80;92.80;;;;;;5074599;28;20525;-87
2021/09/22 04:05:00;;;;;;;20.70;4.83;;;10.80;92.70;;;;;;5075770;28;20174;-87
2021/09/22 04:07:26;;;;;;;20.77;5.03;;;10.80;92.60;;;;;;5075725;28;20191;-87
2021/09/22 04:09:51;;;;;;;22.07;4.13;;;10.80;92.50;;;;;;5074541;28;20597;-87
2021/09/22 04:12:17;;;;;;;22.37;4.97;;;10.80;92.50;;;;;;5074549;28;20546;-87
2021/09/22 04:14:42;;;;;;;12.57;3.50;;;10.80;92.40;;;;;;5075685;28;20663;-87
2021/09/22 04:17:08;;;;;;;20.50;4.20;;;10.70;92.20;;;;;;5074300;28;20175;-87
2021/09/22 04:19:34;;;;;;;14.43;3.10;;;10.70;92.10;;;;;;5074588;28;20179;-87
2021/09/22 04:22:00;;;;;;;23.90;3.83;;;10.70;92.00;;;;;;5075452;28;20195;-87
2021/09/22 04:24:26;;;;;;;18.77;4.27;;;10.70;91.90;;;;;;5074270;28;20602;-87
2021/09/22 04:26:52;;;;;;;14.73;3.50;;;10.70;91.80;;;;;;5074193;28;20175;-87
2021/09/22 04:29:18;;;;;;;21.10;4.70;;;10.70;91.80;;;;;;5074049;28;20199;-87
2021/09/22 04:31:43;;;;;;;27.40;5.00;;;10.60;91.70;;;;;;5075512;28;20187;-87
2021/09/22 04:34:09;;;;;;;32.80;6.30;;;10.70;92.00;;;;;;5074123;28;20229;-87
2021/09/22 04:36:35;;;;;;;24.83;4.90;;;10.70;92.50;;;;;;5075223;28;20176;-87
2021/09/22 04:39:04;;;;;;;23.83;5.50;;;10.60;92.80;;;;;;5073290;28;20199;-87
2021/09/22 04:41:30;;;;;;;28.13;5.73;;;10.60;92.90;;;;;;5073462;28;20272;-87
2021/09/22 04:43:55;;;;;;;30.83;6.00;;;10.60;93.10;;;;;;5073858;28;20699;-86
2021/09/22 04:46:21;;;;;;;27.07;5.30;;;10.70;93.40;;;;;;5073886;28;20181;-87
2021/09/22 04:48:47;;;;;;;38.73;6.93;;;10.70;93.60;;;;;;5075133;28;20275;-87
2021/09/22 04:51:12;;;;;;;28.17;6.87;;;10.70;93.70;;;;;;5074952;28;20186;-87
2021/09/22 04:53:38;;;;;;;28.37;6.10;;;10.70;93.70;;;;;;5073739;28;20546;-87
2021/09/22 04:56:05;;;;;;;29.07;6.10;;;10.70;93.70;;;;;;5074437;28;20179;-87
2021/09/22 04:58:30;;;;;;;36.90;8.17;;;10.70;93.70;;;;;;5073390;28;20211;-87
2021/09/22 05:01:01;;;;;;;34.90;6.17;;;10.80;93.80;;;;;;5073425;28;20698;-87
2021/09/22 05:03:27;;;;;;;28.67;6.27;;;10.80;93.80;;;;;;5073472;28;20175;-87
2021/09/22 05:05:52;;;;;;;30.00;7.37;;;10.90;93.80;;;;;;5073432;28;20258;-87
2021/09/22 05:08:19;;;;;;;29.50;6.87;;;10.80;93.70;;;;;;5073600;28;20269;-87
2021/09/22 05:10:45;;;;;;;29.63;6.70;;;10.90;93.70;;;;;;5073317;28;20183;-87
2021/09/22 05:13:10;;;;;;;30.67;7.43;;;10.90;93.60;;;;;;5074392;28;20178;-87
2021/09/22 05:15:36;;;;;;;41.77;8.47;;;11.00;93.70;;;;;;5073281;28;20560;-87
2021/09/22 05:18:02;;;;;;;42.50;9.40;;;11.10;93.80;;;;;;5073090;28;20640;-87
2021/09/22 05:20:27;;;;;;;47.93;9.50;;;11.10;93.90;;;;;;5073034;28;20298;-87
2021/09/22 05:22:53;;;;;;;27.30;7.70;;;11.10;94.00;;;;;;5073037;28;20221;-87
2021/09/22 05:25:19;;;;;;;42.33;9.50;;;11.10;94.10;;;;;;5073053;28;20557;-87
2021/09/22 05:27:46;;;;;;;36.73;9.20;;;11.20;94.30;;;;;;5072968;28;20192;-87
2021/09/22 05:30:12;;;;;;;34.77;10.20;;;11.20;94.40;;;;;;5072915;28;20190;-87
2021/09/22 05:32:38;;;;;;;40.63;10.40;;;11.20;94.50;;;;;;5074109;28;20172;-87
2021/09/22 05:35:05;;;;;;;30.97;10.20;;;11.30;94.50;;;;;;5072881;28;20186;-87
2021/09/22 05:37:31;;;;;;;34.37;9.27;;;11.30;94.50;;;;;;5072737;28;20199;-87
2021/09/22 05:39:59;;;;;;;40.90;9.80;;;11.30;94.60;;;;;;5072768;28;20659;-87
2021/09/22 05:42:25;;;;;;;38.73;9.83;;;11.30;94.50;;;;;;5072760;28;20642;-87
2021/09/22 05:44:50;;;;;;;34.77;11.33;;;11.30;94.60;;;;;;5072737;28;20182;-87
2021/09/22 05:47:16;;;;;;;36.90;12.07;;;11.40;94.70;;;;;;5072530;28;20183;-87
2021/09/22 05:49:42;;;;;;;38.27;11.70;;;11.50;94.70;;;;;;5072634;28;20175;-87
2021/09/22 05:52:08;;;;;;;40.40;12.93;;;11.50;94.80;;;;;;5073544;28;20175;-87
2021/09/22 05:54:33;;;;;;;43.60;13.90;;;11.50;94.80;;;;;;5073725;28;20175;-86
2021/09/22 05:56:59;;;;;;;30.10;12.10;;;11.60;94.80;;;;;;5072951;28;20175;-87
2021/09/22 05:59:24;;;;;;;37.17;12.57;;;11.70;94.90;;;;;;5073607;28;20223;-87
2021/09/22 06:01:50;;;;;;;39.43;15.20;;;11.70;94.90;;;;;;5072432;28;20255;-87
2021/09/22 06:04:16;;;;;;;41.17;15.63;;;11.70;94.90;;;;;;5072352;28;20175;-87
2021/09/22 06:06:41;;;;;;;34.10;15.47;;;11.70;94.90;;;;;;5072504;28;20185;-87
2021/09/22 06:09:07;;;;;;;46.70;14.83;;;11.70;94.90;;;;;;5072504;28;20203;-87
2021/09/22 06:11:33;;;;;;;36.50;15.07;;;11.80;95.00;;;;;;5072331;28;20194;-87
2021/09/22 06:13:59;;;;;;;41.73;16.90;;;11.80;94.90;;;;;;5072302;28;20183;-87
2021/09/22 06:16:26;;;;;;;40.60;16.50;;;11.80;95.00;;;;;;5072282;28;20183;-88
2021/09/22 06:18:51;;;;;;;37.57;14.53;;;11.80;95.00;;;;;;5072078;28;20199;-87
2021/09/22 06:21:18;;;;;;;56.67;16.83;;;11.90;95.00;;;;;;5072127;28;20294;-87
2021/09/22 06:23:43;;;;;;;41.77;15.77;;;12.00;95.00;;;;;;5072166;28;20661;-86
2021/09/22 06:26:09;;;;;;;42.67;15.23;;;12.00;95.10;;;;;;5072006;28;20179;-86
2021/09/22 06:28:35;;;;;;;36.87;14.60;;;12.00;95.10;;;;;;5072012;28;20195;-86
2021/09/22 06:31:02;;;;;;;44.83;14.50;;;12.00;95.10;;;;;;5071985;28;20171;-86
2021/09/22 06:33:28;;;;;;;35.43;14.27;;;12.10;95.10;;;;;;5073407;28;20174;-86
2021/09/22 06:35:59;;;;;;;35.10;14.93;;;12.20;95.20;;;;;;5073491;28;20171;-86
2021/09/22 06:38:25;;;;;;;36.10;15.77;;;12.20;95.20;;;;;;5071944;28;20283;-86
2021/09/22 06:40:51;;;;;;;32.07;15.27;;;12.30;95.20;;;;;;5073207;28;20198;-86
2021/09/22 06:43:17;;;;;;;48.20;17.50;;;12.30;95.20;;;;;;5073474;28;20201;-86
2021/09/22 06:45:43;;;;;;;40.97;18.30;;;12.30;95.20;;;;;;5071878;28;20211;-86
2021/09/22 06:48:09;;;;;;;31.97;16.67;;;12.30;95.20;;;;;;5071707;28;20270;-87
2021/09/22 06:50:35;;;;;;;34.77;19.03;;;12.40;95.20;;;;;;5071930;28;20164;-86
2021/09/22 06:53:00;;;;;;;39.47;15.87;;;12.40;95.20;;;;;;5071814;28;20171;-86
2021/09/22 06:55:26;;;;;;;33.47;16.40;;;12.40;95.20;;;;;;5072877;28;20655;-86
2021/09/22 06:57:52;;;;;;;40.17;17.37;;;12.50;95.20;;;;;;5072978;28;20298;-86
2021/09/22 07:00:17;;;;;;;39.63;16.47;;;12.60;95.20;;;;;;5072867;28;20750;-87
2021/09/22 07:02:43;;;;;;;43.30;17.03;;;12.60;95.20;;;;;;5073801;28;20678;-87
2021/09/22 07:05:12;;;;;;;34.00;15.57;;;12.70;95.20;;;;;;5075675;28;20176;-86
2021/09/22 07:07:39;;;;;;;34.60;16.40;;;12.70;95.20;;;;;;5075770;28;20191;-87
2021/09/22 07:10:05;;;;;;;33.50;14.93;;;12.70;95.10;;;;;;5075610;28;20275;-86
2021/09/22 07:12:31;;;;;;;37.03;16.57;;;12.80;95.10;;;;;;5075572;28;20171;-86
2021/09/22 07:14:57;;;;;;;34.83;17.30;;;12.80;95.10;;;;;;5077146;28;20167;-86
2021/09/22 07:17:23;;;;;;;38.10;17.33;;;12.80;95.00;;;;;;5075385;28;20195;-86
2021/09/22 07:19:48;;;;;;;36.60;16.63;;;12.80;95.00;;;;;;5075448;28;20178;-86
2021/09/22 07:22:14;;;;;;;38.60;17.67;;;12.90;95.00;;;;;;5075343;28;20251;-87
2021/09/22 07:24:40;;;;;;;31.53;17.30;;;13.00;95.00;;;;;;5075526;28;20171;-86
2021/09/22 07:27:06;;;;;;;37.00;17.63;;;13.10;95.00;;;;;;5076703;28;20276;-87
2021/09/22 07:29:32;;;;;;;37.20;16.63;;;13.10;95.00;;;;;;5075307;28;20263;-87
2021/09/22 07:31:58;;;;;;;29.53;16.90;;;13.20;94.90;;;;;;5076482;28;20717;-87
2021/09/22 07:34:24;;;;;;;35.20;16.33;;;13.10;94.70;;;;;;5076480;28;20175;-87
2021/09/22 07:36:50;;;;;;;39.40;16.20;;;13.10;94.60;;;;;;5075153;28;20554;-87
2021/09/22 07:39:16;;;;;;;34.07;18.00;;;13.30;94.60;;;;;;5074988;28;20282;-87
2021/09/22 07:41:42;;;;;;;32.33;16.80;;;13.40;94.60;;;;;;5076198;28;20282;-87
2021/09/22 07:44:08;;;;;;;29.27;17.07;;;13.50;94.50;;;;;;5075058;28;20275;-87
2021/09/22 07:46:34;;;;;;;31.40;15.97;;;13.30;94.20;;;;;;5074986;28;20189;-87
2021/09/22 07:49:00;;;;;;;31.57;15.63;;;13.30;94.00;;;;;;5074827;28;20191;-87
2021/09/22 07:51:25;;;;;;;27.13;16.33;;;13.30;94.10;;;;;;5074890;28;20232;-87
2021/09/22 07:53:51;;;;;;;27.50;15.83;;;13.40;94.10;;;;;;5076047;28;20262;-87
2021/09/22 07:56:17;;;;;;;33.80;17.13;;;13.50;94.00;;;;;;5074778;28;20258;-87
2021/09/22 07:58:43;;;;;;;32.77;17.20;;;13.50;93.80;;;;;;5075885;28;20226;-88
2021/09/22 08:01:12;;;;;;;33.00;16.30;;;13.60;93.80;;;;;;5074744;28;20199;-87
2021/09/22 08:03:38;;;;;;;31.50;16.33;;;13.60;93.70;;;;;;5074803;28;20647;-87
2021/09/22 08:06:03;;;;;;;33.97;17.07;;;13.60;93.50;;;;;;5074584;28;20168;-87
2021/09/22 08:08:29;;;;;;;28.70;15.63;;;13.70;93.60;;;;;;5074891;28;20191;-87
2021/09/22 08:10:55;;;;;;;35.33;16.23;;;13.80;93.40;;;;;;5074482;28;20175;-87
2021/09/22 08:13:20;;;;;;;30.70;15.67;;;13.80;93.00;;;;;;5075778;28;20168;-87
2021/09/22 08:15:46;;;;;;;27.93;16.13;;;13.80;93.00;;;;;;5074350;28;20172;-87
2021/09/22 08:18:12;;;;;;;30.23;17.87;;;13.90;93.10;;;;;;5074337;28;20601;-87
2021/09/22 08:20:37;;;;;;;34.07;18.00;;;14.10;93.00;;;;;;5074350;28;20717;-87
2021/09/22 08:23:03;;;;;;;36.33;19.80;;;14.10;92.70;;;;;;5075903;28;20160;-87
2021/09/22 08:25:29;;;;;;;24.53;18.90;;;14.20;92.60;;;;;;5075606;28;20170;-87
2021/09/22 08:27:55;;;;;;;29.17;18.57;;;14.30;92.70;;;;;;5075359;28;20190;-87
2021/09/22 08:30:20;;;;;;;36.03;22.47;;;14.20;92.10;;;;;;5074166;28;20262;-87
2021/09/22 08:32:46;;;;;;;33.70;20.57;;;14.40;92.40;;;;;;5075451;28;20206;-87
2021/09/22 08:35:13;;;;;;;36.60;21.30;;;14.60;92.70;;;;;;5074156;28;20195;-87
2021/09/22 08:37:38;;;;;;;34.57;21.43;;;14.70;92.10;;;;;;5075195;28;20207;-87
2021/09/22 08:40:06;;;;;;;39.30;20.57;;;14.70;91.90;;;;;;5075188;28;20171;-87
2021/09/22 08:42:32;;;;;;;38.73;20.67;;;14.60;91.60;;;;;;5075105;28;20575;-87
2021/09/22 08:44:58;;;;;;;28.30;18.77;;;14.60;91.60;;;;;;5074278;28;20178;-87
2021/09/22 08:47:24;;;;;;;33.97;19.37;;;14.80;91.90;;;;;;5073928;28;20195;-87
2021/09/22 08:49:51;;;;;;;27.40;17.70;;;14.80;91.80;;;;;;5075156;28;20179;-87
2021/09/22 08:52:17;;;;;;;31.87;20.07;;;14.80;90.80;;;;;;5074972;28;20203;-87
2021/09/22 08:54:43;;;;;;;33.03;19.27;;;14.80;91.20;;;;;;5075097;28;20186;-87
2021/09/22 08:57:08;;;;;;;37.33;19.33;;;15.10;91.70;;;;;;5074927;28;20172;-87
2021/09/22 08:59:34;;;;;;;26.17;15.80;;;15.10;91.00;;;;;;5073572;28;20195;-87
2021/09/22 09:02:19;;;;;;;28.65;15.88;;;15.20;90.50;;;;;;5074752;28;20203;-87
2021/09/22 09:05:00;;;;;;;28.38;15.10;;;15.20;89.70;;;;;;5074830;28;20152;-87
2021/09/22 09:07:29;;;;;;;28.23;14.90;;;15.50;90.50;;;;;;5073676;28;20214;-87
2021/09/22 09:10:04;;;;;;;28.00;14.00;;;15.30;89.50;;;;;;5074623;28;20179;-87
2021/09/22 09:12:29;;;;;;;26.10;14.00;;;15.50;89.10;;;;;;5073325;28;20177;-87
2021/09/22 09:14:58;;;;;;;24.67;12.80;;;15.60;89.40;;;;;;5073281;28;20183;-87
2021/09/22 09:17:45;;;;;;;17.48;11.80;;;15.60;88.50;;;;;;5074553;28;20277;-87
2021/09/22 09:20:19;;;;;;;21.60;13.40;;;15.70;87.60;;;;;;5073496;28;20588;-87
2021/09/22 09:23:05;;;;;;;22.08;12.98;;;15.60;87.70;;;;;;5074410;28;20217;-87
2021/09/22 09:25:35;;;;;;;21.10;12.77;;;15.80;87.90;;;;;;5073856;28;20155;-87
2021/09/22 09:28:21;;;;;;;20.85;11.98;;;16.00;88.40;;;;;;5073197;28;20191;-87
2021/09/22 09:30:49;;;;;;;21.08;12.18;;;16.00;86.80;;;;;;5074560;28;20152;-87
2021/09/22 09:33:43;;;;;;;20.25;11.38;;;16.00;86.70;;;;;;5073000;28;20172;-87
2021/09/22 09:36:22;;;;;;;19.63;10.90;;;16.30;87.90;;;;;;5074507;28;20176;-87
2021/09/22 09:39:20;;;;;;;17.25;10.30;;;16.20;85.70;;;;;;5072876;28;20207;-87
2021/09/22 09:41:51;;;;;;;16.25;9.13;;;16.40;86.50;;;;;;5074262;28;20188;-87
2021/09/22 09:44:23;;;;;;;23.05;11.40;;;16.70;86.60;;;;;;5072742;28;20195;-87
2021/09/22 09:46:51;;;;;;;16.67;9.95;;;16.70;86.00;;;;;;5072739;28;20163;-87
2021/09/22 09:49:19;;;;;;;18.77;8.88;;;16.90;85.80;;;;;;5073874;28;20191;-87
2021/09/22 09:51:51;;;;;;;15.65;8.02;;;17.00;85.80;;;;;;5072476;28;20187;-87
2021/09/22 09:54:32;;;;;;;19.83;8.88;;;17.00;84.70;;;;;;5072713;28;20163;-87
2021/09/22 09:57:10;;;;;;;15.32;6.85;;;17.10;84.20;;;;;;5073701;28;20201;-87
2021/09/22 09:59:56;;;;;;;11.98;5.95;;;17.20;83.00;;;;;;5071747;28;20561;-87
2021/09/22 10:02:32;;;;;;;11.30;5.60;;;17.20;83.10;;;;;;5072883;28;20591;-87
2021/09/22 10:05:00;;;;;;;11.70;5.63;;;17.20;82.60;;;;;;5071678;28;20167;-87
2021/09/22 10:07:26;;;;;;;19.05;5.88;;;17.40;83.20;;;;;;5071590;28;20199;-87
2021/09/22 10:09:52;;;;;;;14.27;5.93;;;17.40;81.20;;;;;;5071572;28;20186;-87
2021/09/22 10:12:19;;;;;;;12.60;5.35;;;17.60;81.00;;;;;;5071534;28;20175;-87
2021/09/22 10:14:47;;;;;;;16.63;6.43;;;17.60;79.60;;;;;;5071884;28;20167;-87
2021/09/22 10:17:15;;;;;;;17.92;5.97;;;17.80;80.70;;;;;;5072618;28;20267;-87
2021/09/22 10:19:44;;;;;;;16.27;5.15;;;17.60;79.30;;;;;;5072683;28;20163;-87
2021/09/22 10:22:09;;;;;;;17.20;5.07;;;17.50;81.10;;;;;;5072537;28;20244;-87
2021/09/22 10:24:35;;;;;;;13.82;3.92;;;17.40;79.70;;;;;;5072505;28;20171;-87
2021/09/22 10:27:01;;;;;;;15.75;4.28;;;17.30;79.00;;;;;;5072524;28;20656;-87
2021/09/22 10:29:35;;;;;;;8.82;4.15;;;17.20;78.40;;;;;;5072480;28;20191;-87
2021/09/22 10:32:01;;;;;;;13.70;4.55;;;17.10;77.30;;;;;;5071583;28;20167;-87
2021/09/22 10:34:29;;;;;;;9.73;4.30;;;16.90;79.70;;;;;;5072454;28;20164;-87
2021/09/22 10:36:55;;;;;;;9.95;4.43;;;17.20;80.30;;;;;;5070517;28;20726;-87
2021/09/22 10:39:42;;;;;;;11.50;4.93;;;17.40;78.80;;;;;;5070475;28;20202;-87
2021/09/22 10:42:28;;;;;;;11.82;3.58;;;17.60;79.70;;;;;;5070966;28;20663;-87
2021/09/22 10:45:15;;;;;;;15.23;3.55;;;17.90;77.30;;;;;;5072336;28;20171;-87
2021/09/22 10:47:41;;;;;;;10.45;3.08;;;18.20;76.60;;;;;;5070966;28;20218;-87
2021/09/22 10:50:08;;;;;;;11.75;3.50;;;18.30;73.70;;;;;;5072242;28;20179;-87
2021/09/22 10:52:41;;;;;;;13.02;4.03;;;18.30;74.20;;;;;;5070879;28;20172;-87
2021/09/22 10:55:07;;;;;;;9.73;3.50;;;18.50;75.20;;;;;;5071043;28;20274;-87
2021/09/22 10:57:33;;;;;;;13.90;4.22;;;18.50;73.70;;;;;;5031880;28;1112153;-87
2021/09/22 11:00:13;;;;;;;11.90;4.03;;;18.70;75.70;;;;;;5073354;28;20152;-87
2021/09/22 11:02:46;;;;;;;10.45;3.70;;;18.90;73.30;;;;;;5071814;28;20560;-87
2021/09/22 11:05:34;;;;;;;11.82;3.42;;;18.70;72.20;;;;;;5071777;28;20515;-87
2021/09/22 11:08:04;;;;;;;8.15;3.25;;;18.60;73.50;;;;;;5071380;28;20205;-87
2021/09/22 11:10:31;;;;;;;13.50;3.88;;;18.40;71.30;;;;;;5071630;28;20277;-87
2021/09/22 11:13:28;;;;;;;14.18;3.72;;;18.40;75.10;;;;;;5071649;28;20179;-87
2021/09/22 11:16:06;;;;;;;9.93;3.78;;;19.10;71.40;;;;;;5067475;28;20188;-87
2021/09/22 11:18:32;;;;;;;9.93;3.72;;;19.20;71.50;;;;;;5072772;28;20206;-87
2021/09/22 11:21:00;;;;;;;10.60;3.45;;;19.50;72.70;;;;;;5072785;28;20196;-87
2021/09/22 11:23:27;;;;;;;10.30;4.30;;;19.20;69.40;;;;;;5071658;28;20176;-87
2021/09/22 11:25:53;;;;;;;10.00;3.20;;;19.00;70.90;;;;;;5071579;28;20203;-87
2021/09/22 11:28:19;;;;;;;10.50;3.10;;;19.30;72.30;;;;;;5072667;28;20191;-87
2021/09/22 11:30:53;;;;;;;11.77;3.15;;;19.20;70.70;;;;;;5071645;28;20524;-87
2021/09/22 11:33:23;;;;;;;8.85;2.85;;;19.30;70.70;;;;;;5071527;28;20588;-87
2021/09/22 11:35:49;;;;;;;7.13;2.88;;;19.40;69.60;;;;;;5071433;28;20225;-87
2021/09/22 11:38:15;;;;;;;6.45;2.88;;;19.00;70.40;;;;;;5072577;28;20191;-87
2021/09/22 11:40:41;;;;;;;12.00;3.85;;;18.80;69.90;;;;;;5071312;28;20199;-87
2021/09/22 11:43:13;;;;;;;7.53;2.75;;;19.10;69.90;;;;;;5071482;28;20237;-87
2021/09/22 11:45:44;;;;;;;8.25;2.83;;;19.30;69.70;;;;;;5071698;28;20179;-87
2021/09/22 11:48:13;;;;;;;7.75;2.72;;;19.70;69.70;;;;;;5072594;28;20179;-87
2021/09/22 11:50:41;;;;;;;6.55;2.50;;;19.40;68.80;;;;;;5074723;28;20171;-87
2021/09/22 11:53:17;;;;;;;10.38;3.20;;;19.50;71.40;;;;;;5076080;28;20175;-87
2021/09/22 11:55:45;;;;;;;9.73;2.97;;;19.30;66.90;;;;;;5074852;28;20186;-87
2021/09/22 11:58:13;;;;;;;9.32;3.13;;;19.50;70.90;;;;;;5075818;28;20215;-87
2021/09/22 12:00:41;;;;;;;6.40;2.35;;;19.70;68.20;;;;;;5074753;28;20195;-87
2021/09/22 12:03:13;;;;;;;9.30;2.47;;;20.20;67.30;;;;;;5074756;28;20167;-87
2021/09/22 12:05:41;;;;;;;9.57;2.83;;;19.70;67.60;;;;;;5075889;28;20171;-87
2021/09/22 12:08:07;;;;;;;11.18;2.95;;;19.70;68.80;;;;;;5075825;28;20183;-87
2021/09/22 12:10:34;;;;;;;10.52;2.85;;;19.50;67.80;;;;;;5074602;28;20187;-87
2021/09/22 12:13:04;;;;;;;6.55;2.08;;;19.60;69.10;;;;;;5075853;28;20636;-87
2021/09/22 12:15:31;;;;;;;7.78;2.42;;;20.10;69.50;;;;;;5074523;28;20180;-87
2021/09/22 12:17:58;;;;;;;7.53;2.55;;;19.90;65.60;;;;;;5075918;28;20548;-87
2021/09/22 12:20:24;;;;;;;8.00;2.65;;;19.60;69.40;;;;;;5074368;28;20653;-87
2021/09/22 12:23:22;;;;;;;10.52;3.08;;;19.70;68.00;;;;;;5074433;28;20213;-87
2021/09/22 12:25:48;;;;;;;15.73;3.72;;;19.90;68.20;;;;;;5075539;28;20189;-87
2021/09/22 12:28:21;;;;;;;6.15;2.15;;;19.80;67.10;;;;;;5074254;28;20199;-87
2021/09/22 12:30:47;;;;;;;9.52;2.70;;;20.00;68.80;;;;;;5074259;28;20229;-87
2021/09/22 12:33:19;;;;;;;8.75;2.25;;;20.00;67.40;;;;;;5074184;28;20265;-87
2021/09/22 12:35:45;;;;;;;5.95;2.58;;;20.10;67.30;;;;;;5075723;28;20166;-87
2021/09/22 12:38:16;;;;;;;7.20;2.50;;;20.00;65.90;;;;;;5074064;28;20663;-87